Terminal Aerodrome Forecast
Issued by NWS

Home | Current Version | Previous Version | Text Only | Print | Product List | Glossary On
Versions: 1 2 3 4 5 6 7 8 9 10 11 12 13 14 15 16
000
FTUS45 KABQ 012345
TAFTCC
TAF
KTCC 012345Z 0200/0224 24014KT P6SM VCTS SCT080CB BKN120
      TEMPO 0200/0202 VRB25G38KT -TSRA BKN060CB
     FM020230 14010KT P6SM VCSH SCT080 BKN120
     FM020600 24010KT P6SM SCT120 SCT200
     FM021800 24018G28KT P6SM SKC=

USA.gov is the U.S. government's official web portal to all federal, state and local government web resources and services.